Chili, Indiana
Current Conditions -  °F | °C
As of 10:35 AM on Saturday 22 Nov 2014 (Local Time) from KRCR Reporting Station
Broken Clouds Broken Clouds  
Wind Chill: 37°   Ceiling: 2400
Heat Index: 43°   Visibility: 10mi
Dew Point: 39°   Wind: 12mph
Humidity: 87%   Direction: 200°SSW
Pressure: 30.09"   Gusts: 16mph
Location:  40.8903°N, 86.0528°W
Report Text: KRCR 221535Z AUTO 20010G14KT 10SM SCT006 SCT010 BKN024 06/04 A3009 RMK AO2 P0001
Loading
Personal Weather Stations






























Interactive Weather Map New forecast layout! Learn more

10-Day Weather Forecast

Advertisements
Track Severe Weather on mobile